sensor_id;sensor_type;location;lat;lon;timestamp;P1;durP1;ratioP1;P2;durP2;ratioP2
39016;SDS011;24784;45.582;5.276;2023-08-17T00:01:39;4.65;;;2.60;;
39016;SDS011;24784;45.582;5.276;2023-08-17T00:04:06;5.80;;;2.40;;
39016;SDS011;24784;45.582;5.276;2023-08-17T00:06:32;3.60;;;2.22;;
39016;SDS011;24784;45.582;5.276;2023-08-17T00:08:57;4.88;;;2.40;;
39016;SDS011;24784;45.582;5.276;2023-08-17T00:11:23;4.43;;;2.42;;
39016;SDS011;24784;45.582;5.276;2023-08-17T00:13:48;10.15;;;2.60;;
39016;SDS011;24784;45.582;5.276;2023-08-17T00:16:14;4.03;;;2.42;;
39016;SDS011;24784;45.582;5.276;2023-08-17T00:18:40;4.00;;;2.88;;
39016;SDS011;24784;45.582;5.276;2023-08-17T00:21:06;6.30;;;2.20;;
39016;SDS011;24784;45.582;5.276;2023-08-17T00:23:31;3.40;;;2.33;;
39016;SDS011;24784;45.582;5.276;2023-08-17T00:25:57;2.30;;;2.10;;
39016;SDS011;24784;45.582;5.276;2023-08-17T00:28:23;5.13;;;2.70;;
39016;SDS011;24784;45.582;5.276;2023-08-17T00:30:48;11.25;;;2.78;;
39016;SDS011;24784;45.582;5.276;2023-08-17T00:33:15;4.40;;;2.53;;
39016;SDS011;24784;45.582;5.276;2023-08-17T00:35:41;3.95;;;2.22;;
39016;SDS011;24784;45.582;5.276;2023-08-17T00:38:06;4.00;;;2.38;;
39016;SDS011;24784;45.582;5.276;2023-08-17T00:40:32;6.00;;;2.50;;
39016;SDS011;24784;45.582;5.276;2023-08-17T00:42:59;3.80;;;2.65;;
39016;SDS011;24784;45.582;5.276;2023-08-17T00:45:24;3.30;;;2.22;;
39016;SDS011;24784;45.582;5.276;2023-08-17T00:47:51;5.45;;;2.53;;
39016;SDS011;24784;45.582;5.276;2023-08-17T00:50:19;6.30;;;2.50;;
39016;SDS011;24784;45.582;5.276;2023-08-17T00:52:45;2.78;;;2.35;;
39016;SDS011;24784;45.582;5.276;2023-08-17T00:55:11;4.50;;;2.20;;
39016;SDS011;24784;45.582;5.276;2023-08-17T00:57:37;4.57;;;2.58;;
39016;SDS011;24784;45.582;5.276;2023-08-17T01:00:05;4.95;;;2.40;;
39016;SDS011;24784;45.582;5.276;2023-08-17T01:02:32;3.50;;;2.50;;
39016;SDS011;24784;45.582;5.276;2023-08-17T01:04:58;5.40;;;2.42;;
39016;SDS011;24784;45.582;5.276;2023-08-17T01:07:24;4.28;;;2.33;;
39016;SDS011;24784;45.582;5.276;2023-08-17T01:09:50;5.97;;;2.47;;
39016;SDS011;24784;45.582;5.276;2023-08-17T01:13:17;3.28;;;2.50;;
39016;SDS011;24784;45.582;5.276;2023-08-17T01:15:35;5.05;;;2.55;;
39016;SDS011;24784;45.582;5.276;2023-08-17T01:20:44;7.47;;;2.63;;
39016;SDS011;24784;45.582;5.276;2023-08-17T01:23:10;5.88;;;2.60;;
39016;SDS011;24784;45.582;5.276;2023-08-17T01:25:35;3.85;;;2.53;;
39016;SDS011;24784;45.582;5.276;2023-08-17T01:28:04;6.03;;;2.40;;
39016;SDS011;24784;45.582;5.276;2023-08-17T01:30:33;3.33;;;2.50;;
39016;SDS011;24784;45.582;5.276;2023-08-17T01:33:13;8.50;;;2.75;;
39016;SDS011;24784;45.582;5.276;2023-08-17T01:35:58;7.93;;;2.40;;
39016;SDS011;24784;45.582;5.276;2023-08-17T01:38:38;5.38;;;2.60;;
39016;SDS011;24784;45.582;5.276;2023-08-17T01:41:05;8.00;;;3.33;;
39016;SDS011;24784;45.582;5.276;2023-08-17T01:43:38;8.18;;;2.92;;
39016;SDS011;24784;45.582;5.276;2023-08-17T01:46:06;18.80;;;3.60;;
39016;SDS011;24784;45.582;5.276;2023-08-17T01:48:33;11.80;;;3.95;;
39016;SDS011;24784;45.582;5.276;2023-08-17T01:50:58;12.07;;;3.33;;
39016;SDS011;24784;45.582;5.276;2023-08-17T01:53:24;6.82;;;3.47;;
39016;SDS011;24784;45.582;5.276;2023-08-17T01:55:50;3.47;;;3.17;;
39016;SDS011;24784;45.582;5.276;2023-08-17T01:58:15;4.00;;;3.05;;
39016;SDS011;24784;45.582;5.276;2023-08-17T02:00:41;7.82;;;3.47;;
39016;SDS011;24784;45.582;5.276;2023-08-17T02:03:07;5.68;;;3.50;;
39016;SDS011;24784;45.582;5.276;2023-08-17T02:05:33;8.23;;;3.78;;
39016;SDS011;24784;45.582;5.276;2023-08-17T02:07:58;7.65;;;2.83;;
39016;SDS011;24784;45.582;5.276;2023-08-17T02:10:24;3.85;;;2.97;;
39016;SDS011;24784;45.582;5.276;2023-08-17T02:12:50;3.70;;;3.15;;
39016;SDS011;24784;45.582;5.276;2023-08-17T02:15:16;7.13;;;3.42;;
39016;SDS011;24784;45.582;5.276;2023-08-17T02:17:41;5.68;;;3.10;;
39016;SDS011;24784;45.582;5.276;2023-08-17T02:20:07;4.55;;;3.20;;
39016;SDS011;24784;45.582;5.276;2023-08-17T02:22:34;5.57;;;3.28;;
39016;SDS011;24784;45.582;5.276;2023-08-17T02:24:59;6.43;;;4.28;;
39016;SDS011;24784;45.582;5.276;2023-08-17T02:27:25;7.15;;;3.08;;
39016;SDS011;24784;45.582;5.276;2023-08-17T02:29:51;4.78;;;3.10;;
39016;SDS011;24784;45.582;5.276;2023-08-17T02:32:17;3.90;;;3.10;;
39016;SDS011;24784;45.582;5.276;2023-08-17T02:34:42;6.13;;;2.85;;
39016;SDS011;24784;45.582;5.276;2023-08-17T02:37:08;4.47;;;3.35;;
39016;SDS011;24784;45.582;5.276;2023-08-17T02:39:34;6.70;;;3.25;;
39016;SDS011;24784;45.582;5.276;2023-08-17T02:42:00;6.53;;;2.85;;
39016;SDS011;24784;45.582;5.276;2023-08-17T02:44:25;5.05;;;3.13;;
39016;SDS011;24784;45.582;5.276;2023-08-17T02:46:53;3.90;;;3.40;;
39016;SDS011;24784;45.582;5.276;2023-08-17T02:49:19;4.43;;;3.28;;
39016;SDS011;24784;45.582;5.276;2023-08-17T02:51:45;4.97;;;3.30;;
39016;SDS011;24784;45.582;5.276;2023-08-17T02:54:10;4.47;;;3.30;;
39016;SDS011;24784;45.582;5.276;2023-08-17T02:56:36;4.60;;;2.97;;
39016;SDS011;24784;45.582;5.276;2023-08-17T02:59:02;8.10;;;4.13;;
39016;SDS011;24784;45.582;5.276;2023-08-17T03:01:27;8.98;;;3.60;;
39016;SDS011;24784;45.582;5.276;2023-08-17T03:03:54;5.15;;;3.50;;
39016;SDS011;24784;45.582;5.276;2023-08-17T03:06:20;3.50;;;3.20;;
39016;SDS011;24784;45.582;5.276;2023-08-17T03:08:46;5.38;;;3.47;;
39016;SDS011;24784;45.582;5.276;2023-08-17T03:11:12;4.00;;;3.03;;
39016;SDS011;24784;45.582;5.276;2023-08-17T03:13:37;4.47;;;2.67;;
39016;SDS011;24784;45.582;5.276;2023-08-17T03:16:03;6.78;;;3.22;;
39016;SDS011;24784;45.582;5.276;2023-08-17T03:18:29;5.30;;;3.35;;
39016;SDS011;24784;45.582;5.276;2023-08-17T03:20:54;5.10;;;2.85;;
39016;SDS011;24784;45.582;5.276;2023-08-17T03:23:20;6.25;;;3.47;;
39016;SDS011;24784;45.582;5.276;2023-08-17T03:25:46;4.90;;;2.97;;
39016;SDS011;24784;45.582;5.276;2023-08-17T03:28:16;4.07;;;3.05;;
39016;SDS011;24784;45.582;5.276;2023-08-17T03:30:41;4.30;;;3.00;;
39016;SDS011;24784;45.582;5.276;2023-08-17T03:33:08;7.13;;;3.00;;
39016;SDS011;24784;45.582;5.276;2023-08-17T03:35:34;8.02;;;2.97;;
39016;SDS011;24784;45.582;5.276;2023-08-17T03:38:00;5.18;;;2.67;;
39016;SDS011;24784;45.582;5.276;2023-08-17T03:40:26;7.90;;;3.20;;
39016;SDS011;24784;45.582;5.276;2023-08-17T03:42:51;3.33;;;3.00;;
39016;SDS011;24784;45.582;5.276;2023-08-17T03:45:17;4.65;;;3.45;;
39016;SDS011;24784;45.582;5.276;2023-08-17T03:47:43;4.45;;;2.97;;
39016;SDS011;24784;45.582;5.276;2023-08-17T03:50:09;10.85;;;3.88;;
39016;SDS011;24784;45.582;5.276;2023-08-17T03:52:35;5.55;;;2.95;;
39016;SDS011;24784;45.582;5.276;2023-08-17T03:55:01;5.05;;;2.95;;
39016;SDS011;24784;45.582;5.276;2023-08-17T03:57:26;7.85;;;3.05;;
39016;SDS011;24784;45.582;5.276;2023-08-17T03:59:52;8.43;;;3.08;;
39016;SDS011;24784;45.582;5.276;2023-08-17T04:02:18;5.40;;;2.90;;
39016;SDS011;24784;45.582;5.276;2023-08-17T04:04:43;4.22;;;3.20;;
39016;SDS011;24784;45.582;5.276;2023-08-17T04:07:09;7.40;;;3.20;;
39016;SDS011;24784;45.582;5.276;2023-08-17T04:09:35;4.90;;;3.38;;
39016;SDS011;24784;45.582;5.276;2023-08-17T04:12:00;4.45;;;3.05;;
39016;SDS011;24784;45.582;5.276;2023-08-17T04:14:29;6.40;;;3.10;;
39016;SDS011;24784;45.582;5.276;2023-08-17T04:16:54;4.85;;;3.17;;
39016;SDS011;24784;45.582;5.276;2023-08-17T04:19:21;8.73;;;3.42;;
39016;SDS011;24784;45.582;5.276;2023-08-17T04:21:47;6.15;;;3.35;;
39016;SDS011;24784;45.582;5.276;2023-08-17T04:24:12;7.68;;;3.22;;
39016;SDS011;24784;45.582;5.276;2023-08-17T04:26:38;8.77;;;4.03;;
39016;SDS011;24784;45.582;5.276;2023-08-17T04:29:04;7.38;;;3.72;;
39016;SDS011;24784;45.582;5.276;2023-08-17T04:31:29;4.70;;;3.30;;
39016;SDS011;24784;45.582;5.276;2023-08-17T04:33:55;10.43;;;3.38;;
39016;SDS011;24784;45.582;5.276;2023-08-17T04:36:21;7.55;;;3.15;;
39016;SDS011;24784;45.582;5.276;2023-08-17T04:38:46;10.35;;;3.75;;
39016;SDS011;24784;45.582;5.276;2023-08-17T04:41:12;6.60;;;3.63;;
39016;SDS011;24784;45.582;5.276;2023-08-17T04:43:37;7.60;;;2.75;;
39016;SDS011;24784;45.582;5.276;2023-08-17T04:46:03;8.82;;;4.03;;
39016;SDS011;24784;45.582;5.276;2023-08-17T04:48:29;5.78;;;3.70;;
39016;SDS011;24784;45.582;5.276;2023-08-17T04:50:54;9.15;;;3.55;;
39016;SDS011;24784;45.582;5.276;2023-08-17T04:53:20;9.02;;;3.58;;
39016;SDS011;24784;45.582;5.276;2023-08-17T04:55:46;8.10;;;3.55;;
39016;SDS011;24784;45.582;5.276;2023-08-17T04:58:12;6.40;;;3.22;;
39016;SDS011;24784;45.582;5.276;2023-08-17T05:00:37;7.70;;;3.65;;
39016;SDS011;24784;45.582;5.276;2023-08-17T05:03:03;4.80;;;3.15;;
39016;SDS011;24784;45.582;5.276;2023-08-17T05:05:29;5.50;;;3.15;;
39016;SDS011;24784;45.582;5.276;2023-08-17T05:07:55;8.90;;;3.47;;
39016;SDS011;24784;45.582;5.276;2023-08-17T05:10:20;8.38;;;3.45;;
39016;SDS011;24784;45.582;5.276;2023-08-17T05:12:46;6.18;;;3.35;;
39016;SDS011;24784;45.582;5.276;2023-08-17T05:15:12;6.45;;;3.25;;
39016;SDS011;24784;45.582;5.276;2023-08-17T05:17:37;5.72;;;3.50;;
39016;SDS011;24784;45.582;5.276;2023-08-17T05:20:03;6.47;;;3.30;;
39016;SDS011;24784;45.582;5.276;2023-08-17T05:22:29;7.30;;;2.90;;
39016;SDS011;24784;45.582;5.276;2023-08-17T05:24:55;4.45;;;2.80;;
39016;SDS011;24784;45.582;5.276;2023-08-17T05:27:21;9.85;;;3.33;;
39016;SDS011;24784;45.582;5.276;2023-08-17T05:29:46;4.68;;;3.15;;
39016;SDS011;24784;45.582;5.276;2023-08-17T05:32:12;4.65;;;3.47;;
39016;SDS011;24784;45.582;5.276;2023-08-17T05:34:38;6.53;;;3.17;;
39016;SDS011;24784;45.582;5.276;2023-08-17T05:37:03;14.25;;;3.40;;
39016;SDS011;24784;45.582;5.276;2023-08-17T05:39:29;7.97;;;3.53;;
39016;SDS011;24784;45.582;5.276;2023-08-17T05:41:55;6.10;;;3.78;;
39016;SDS011;24784;45.582;5.276;2023-08-17T05:44:20;13.73;;;3.25;;
39016;SDS011;24784;45.582;5.276;2023-08-17T05:46:46;5.97;;;2.78;;
39016;SDS011;24784;45.582;5.276;2023-08-17T05:49:13;5.55;;;3.20;;
39016;SDS011;24784;45.582;5.276;2023-08-17T05:51:39;7.53;;;3.40;;
39016;SDS011;24784;45.582;5.276;2023-08-17T05:54:04;6.72;;;3.60;;
39016;SDS011;24784;45.582;5.276;2023-08-17T05:56:31;5.57;;;3.88;;
39016;SDS011;24784;45.582;5.276;2023-08-17T05:58:56;4.60;;;2.85;;
39016;SDS011;24784;45.582;5.276;2023-08-17T06:01:22;4.88;;;3.13;;
39016;SDS011;24784;45.582;5.276;2023-08-17T06:03:48;5.20;;;3.38;;
39016;SDS011;24784;45.582;5.276;2023-08-17T06:06:13;3.92;;;2.88;;
39016;SDS011;24784;45.582;5.276;2023-08-17T06:08:39;7.75;;;3.00;;
39016;SDS011;24784;45.582;5.276;2023-08-17T06:11:05;6.65;;;2.85;;
39016;SDS011;24784;45.582;5.276;2023-08-17T06:13:30;5.78;;;3.28;;
39016;SDS011;24784;45.582;5.276;2023-08-17T06:15:56;7.25;;;2.80;;
39016;SDS011;24784;45.582;5.276;2023-08-17T06:18:22;10.02;;;2.80;;
39016;SDS011;24784;45.582;5.276;2023-08-17T06:20:47;8.13;;;3.20;;
39016;SDS011;24784;45.582;5.276;2023-08-17T06:23:17;6.35;;;3.67;;
39016;SDS011;24784;45.582;5.276;2023-08-17T06:25:42;7.07;;;3.45;;
39016;SDS011;24784;45.582;5.276;2023-08-17T06:28:08;7.18;;;3.40;;
39016;SDS011;24784;45.582;5.276;2023-08-17T06:30:34;6.25;;;3.25;;
39016;SDS011;24784;45.582;5.276;2023-08-17T06:32:59;6.18;;;3.30;;
39016;SDS011;24784;45.582;5.276;2023-08-17T06:35:25;5.00;;;2.97;;
39016;SDS011;24784;45.582;5.276;2023-08-17T06:37:51;10.13;;;3.58;;
39016;SDS011;24784;45.582;5.276;2023-08-17T06:40:18;12.50;;;3.08;;
39016;SDS011;24784;45.582;5.276;2023-08-17T06:42:44;5.82;;;3.08;;
39016;SDS011;24784;45.582;5.276;2023-08-17T06:45:10;4.93;;;2.88;;
39016;SDS011;24784;45.582;5.276;2023-08-17T06:47:35;4.93;;;2.65;;
39016;SDS011;24784;45.582;5.276;2023-08-17T06:50:01;5.00;;;2.65;;
39016;SDS011;24784;45.582;5.276;2023-08-17T06:52:27;6.43;;;2.83;;
39016;SDS011;24784;45.582;5.276;2023-08-17T06:54:53;7.05;;;3.10;;
39016;SDS011;24784;45.582;5.276;2023-08-17T06:57:19;5.68;;;3.10;;
39016;SDS011;24784;45.582;5.276;2023-08-17T06:59:46;6.57;;;2.95;;
39016;SDS011;24784;45.582;5.276;2023-08-17T07:02:12;8.15;;;3.00;;
39016;SDS011;24784;45.582;5.276;2023-08-17T07:04:38;22.17;;;6.13;;
39016;SDS011;24784;45.582;5.276;2023-08-17T07:07:03;22.83;;;6.15;;
39016;SDS011;24784;45.582;5.276;2023-08-17T07:09:29;12.20;;;3.33;;
39016;SDS011;24784;45.582;5.276;2023-08-17T07:11:55;6.10;;;2.40;;
39016;SDS011;24784;45.582;5.276;2023-08-17T07:14:20;5.82;;;2.80;;
39016;SDS011;24784;45.582;5.276;2023-08-17T07:16:46;5.70;;;2.80;;
39016;SDS011;24784;45.582;5.276;2023-08-17T07:19:12;8.15;;;3.13;;
39016;SDS011;24784;45.582;5.276;2023-08-17T07:21:38;6.30;;;3.30;;
39016;SDS011;24784;45.582;5.276;2023-08-17T07:24:14;10.80;;;3.13;;
39016;SDS011;24784;45.582;5.276;2023-08-17T07:26:40;6.47;;;3.10;;
39016;SDS011;24784;45.582;5.276;2023-08-17T07:29:06;14.43;;;3.33;;
39016;SDS011;24784;45.582;5.276;2023-08-17T07:31:32;6.43;;;3.08;;
39016;SDS011;24784;45.582;5.276;2023-08-17T07:33:58;8.18;;;3.60;;
39016;SDS011;24784;45.582;5.276;2023-08-17T07:36:26;9.98;;;2.80;;
39016;SDS011;24784;45.582;5.276;2023-08-17T07:38:52;10.00;;;3.15;;
39016;SDS011;24784;45.582;5.276;2023-08-17T07:41:18;7.15;;;3.33;;
39016;SDS011;24784;45.582;5.276;2023-08-17T07:43:43;6.50;;;3.15;;
39016;SDS011;24784;45.582;5.276;2023-08-17T07:46:09;9.38;;;3.10;;
39016;SDS011;24784;45.582;5.276;2023-08-17T07:48:35;8.70;;;3.08;;
39016;SDS011;24784;45.582;5.276;2023-08-17T07:51:00;12.45;;;2.65;;
39016;SDS011;24784;45.582;5.276;2023-08-17T07:53:26;7.05;;;3.03;;
39016;SDS011;24784;45.582;5.276;2023-08-17T07:55:52;4.38;;;2.83;;
39016;SDS011;24784;45.582;5.276;2023-08-17T07:58:17;13.38;;;3.13;;
39016;SDS011;24784;45.582;5.276;2023-08-17T08:00:43;6.90;;;3.17;;
39016;SDS011;24784;45.582;5.276;2023-08-17T08:03:09;7.35;;;3.10;;
39016;SDS011;24784;45.582;5.276;2023-08-17T08:05:34;5.13;;;3.00;;
39016;SDS011;24784;45.582;5.276;2023-08-17T08:08:00;9.35;;;3.17;;
39016;SDS011;24784;45.582;5.276;2023-08-17T08:10:26;6.38;;;3.00;;
39016;SDS011;24784;45.582;5.276;2023-08-17T08:12:52;5.97;;;3.10;;
39016;SDS011;24784;45.582;5.276;2023-08-17T08:15:18;6.80;;;2.70;;
39016;SDS011;24784;45.582;5.276;2023-08-17T08:17:44;8.95;;;2.85;;
39016;SDS011;24784;45.582;5.276;2023-08-17T08:20:09;5.53;;;2.50;;
39016;SDS011;24784;45.582;5.276;2023-08-17T08:22:36;7.18;;;2.92;;
39016;SDS011;24784;45.582;5.276;2023-08-17T08:25:01;6.93;;;3.03;;
39016;SDS011;24784;45.582;5.276;2023-08-17T08:27:27;6.90;;;3.22;;
39016;SDS011;24784;45.582;5.276;2023-08-17T08:29:53;5.80;;;3.03;;
39016;SDS011;24784;45.582;5.276;2023-08-17T08:32:18;10.48;;;3.35;;
39016;SDS011;24784;45.582;5.276;2023-08-17T08:34:44;12.25;;;3.90;;
39016;SDS011;24784;45.582;5.276;2023-08-17T08:37:10;8.52;;;3.40;;
39016;SDS011;24784;45.582;5.276;2023-08-17T08:40:10;6.32;;;3.22;;
39016;SDS011;24784;45.582;5.276;2023-08-17T08:42:28;11.15;;;3.28;;
39016;SDS011;24784;45.582;5.276;2023-08-17T08:44:54;20.95;;;3.97;;
39016;SDS011;24784;45.582;5.276;2023-08-17T08:47:20;12.57;;;3.72;;
39016;SDS011;24784;45.582;5.276;2023-08-17T08:50:01;7.40;;;3.58;;
39016;SDS011;24784;45.582;5.276;2023-08-17T08:52:35;7.95;;;3.38;;
39016;SDS011;24784;45.582;5.276;2023-08-17T08:55:10;6.40;;;3.30;;
39016;SDS011;24784;45.582;5.276;2023-08-17T08:57:38;7.90;;;3.10;;
39016;SDS011;24784;45.582;5.276;2023-08-17T09:00:05;7.70;;;3.40;;
39016;SDS011;24784;45.582;5.276;2023-08-17T09:02:32;11.68;;;3.33;;
39016;SDS011;24784;45.582;5.276;2023-08-17T09:04:59;6.47;;;3.30;;
39016;SDS011;24784;45.582;5.276;2023-08-17T09:07:25;18.38;;;3.70;;
39016;SDS011;24784;45.582;5.276;2023-08-17T09:09:54;9.65;;;3.28;;
39016;SDS011;24784;45.582;5.276;2023-08-17T09:12:21;11.77;;;3.47;;
39016;SDS011;24784;45.582;5.276;2023-08-17T09:14:47;9.48;;;2.83;;
39016;SDS011;24784;45.582;5.276;2023-08-17T09:17:13;10.57;;;3.50;;
39016;SDS011;24784;45.582;5.276;2023-08-17T09:19:38;6.15;;;3.20;;
39016;SDS011;24784;45.582;5.276;2023-08-17T09:22:04;4.43;;;2.60;;
39016;SDS011;24784;45.582;5.276;2023-08-17T09:24:33;7.97;;;2.67;;
39016;SDS011;24784;45.582;5.276;2023-08-17T09:27:02;5.97;;;2.65;;
39016;SDS011;24784;45.582;5.276;2023-08-17T09:29:29;5.82;;;2.78;;
39016;SDS011;24784;45.582;5.276;2023-08-17T09:32:04;4.75;;;3.08;;
39016;SDS011;24784;45.582;5.276;2023-08-17T09:34:31;8.23;;;3.08;;
39016;SDS011;24784;45.582;5.276;2023-08-17T09:37:02;4.25;;;2.45;;
39016;SDS011;24784;45.582;5.276;2023-08-17T09:39:29;6.47;;;3.22;;
39016;SDS011;24784;45.582;5.276;2023-08-17T09:41:55;7.72;;;2.90;;
39016;SDS011;24784;45.582;5.276;2023-08-17T09:44:20;4.72;;;2.58;;
39016;SDS011;24784;45.582;5.276;2023-08-17T09:46:47;5.30;;;2.75;;
39016;SDS011;24784;45.582;5.276;2023-08-17T09:49:13;7.65;;;2.70;;
39016;SDS011;24784;45.582;5.276;2023-08-17T09:51:41;6.13;;;2.72;;
39016;SDS011;24784;45.582;5.276;2023-08-17T09:54:08;10.02;;;2.80;;
39016;SDS011;24784;45.582;5.276;2023-08-17T09:56:43;5.22;;;2.72;;
39016;SDS011;24784;45.582;5.276;2023-08-17T09:59:09;6.55;;;2.60;;
39016;SDS011;24784;45.582;5.276;2023-08-17T10:01:34;7.53;;;2.63;;
39016;SDS011;24784;45.582;5.276;2023-08-17T10:04:00;4.65;;;2.58;;
39016;SDS011;24784;45.582;5.276;2023-08-17T10:06:27;8.07;;;2.60;;
39016;SDS011;24784;45.582;5.276;2023-08-17T10:08:56;7.05;;;3.10;;
39016;SDS011;24784;45.582;5.276;2023-08-17T10:11:23;6.80;;;2.53;;
39016;SDS011;24784;45.582;5.276;2023-08-17T10:13:51;5.13;;;2.65;;
39016;SDS011;24784;45.582;5.276;2023-08-17T10:16:22;8.23;;;2.75;;
39016;SDS011;24784;45.582;5.276;2023-08-17T10:18:55;6.55;;;2.40;;
39016;SDS011;24784;45.582;5.276;2023-08-17T10:21:31;3.97;;;2.97;;
39016;SDS011;24784;45.582;5.276;2023-08-17T10:24:01;4.63;;;2.35;;
39016;SDS011;24784;45.582;5.276;2023-08-17T10:26:28;4.53;;;2.30;;
39016;SDS011;24784;45.582;5.276;2023-08-17T10:28:54;4.03;;;2.35;;
39016;SDS011;24784;45.582;5.276;2023-08-17T10:31:23;7.53;;;3.10;;
39016;SDS011;24784;45.582;5.276;2023-08-17T10:33:50;5.75;;;2.60;;
39016;SDS011;24784;45.582;5.276;2023-08-17T10:36:16;5.88;;;2.33;;
39016;SDS011;24784;45.582;5.276;2023-08-17T10:38:42;9.35;;;2.50;;
39016;SDS011;24784;45.582;5.276;2023-08-17T10:41:12;7.57;;;2.78;;
39016;SDS011;24784;45.582;5.276;2023-08-17T10:43:55;5.15;;;2.75;;
39016;SDS011;24784;45.582;5.276;2023-08-17T10:46:25;7.03;;;2.60;;
39016;SDS011;24784;45.582;5.276;2023-08-17T10:49:00;5.40;;;2.28;;
39016;SDS011;24784;45.582;5.276;2023-08-17T10:51:28;11.18;;;2.53;;
39016;SDS011;24784;45.582;5.276;2023-08-17T10:53:53;5.82;;;2.75;;
39016;SDS011;24784;45.582;5.276;2023-08-17T10:56:24;6.00;;;2.63;;
39016;SDS011;24784;45.582;5.276;2023-08-17T10:58:52;6.43;;;2.20;;
39016;SDS011;24784;45.582;5.276;2023-08-17T11:01:36;6.20;;;2.67;;
39016;SDS011;24784;45.582;5.276;2023-08-17T11:04:11;6.10;;;2.40;;
39016;SDS011;24784;45.582;5.276;2023-08-17T11:06:42;11.45;;;2.65;;
39016;SDS011;24784;45.582;5.276;2023-08-17T11:09:10;6.97;;;2.63;;
39016;SDS011;24784;45.582;5.276;2023-08-17T11:11:36;11.43;;;2.65;;
39016;SDS011;24784;45.582;5.276;2023-08-17T11:14:02;9.05;;;2.72;;
39016;SDS011;24784;45.582;5.276;2023-08-17T11:16:28;8.68;;;2.53;;
39016;SDS011;24784;45.582;5.276;2023-08-17T11:18:54;8.68;;;2.55;;
39016;SDS011;24784;45.582;5.276;2023-08-17T11:21:23;4.47;;;2.20;;
39016;SDS011;24784;45.582;5.276;2023-08-17T11:23:49;7.97;;;2.33;;
39016;SDS011;24784;45.582;5.276;2023-08-17T11:26:18;7.35;;;2.38;;
39016;SDS011;24784;45.582;5.276;2023-08-17T11:28:44;5.97;;;2.60;;
39016;SDS011;24784;45.582;5.276;2023-08-17T11:31:12;6.55;;;2.38;;
39016;SDS011;24784;45.582;5.276;2023-08-17T11:33:40;7.53;;;2.30;;
39016;SDS011;24784;45.582;5.276;2023-08-17T11:36:06;8.57;;;2.00;;
39016;SDS011;24784;45.582;5.276;2023-08-17T11:38:34;6.90;;;2.38;;
39016;SDS011;24784;45.582;5.276;2023-08-17T11:41:01;7.30;;;2.20;;
39016;SDS011;24784;45.582;5.276;2023-08-17T11:43:33;4.55;;;1.77;;
39016;SDS011;24784;45.582;5.276;2023-08-17T11:45:59;6.38;;;2.15;;
39016;SDS011;24784;45.582;5.276;2023-08-17T11:48:26;7.35;;;2.63;;
39016;SDS011;24784;45.582;5.276;2023-08-17T11:50:52;5.50;;;2.83;;
39016;SDS011;24784;45.582;5.276;2023-08-17T11:53:19;10.73;;;1.90;;
39016;SDS011;24784;45.582;5.276;2023-08-17T11:55:44;3.05;;;1.77;;
39016;SDS011;24784;45.582;5.276;2023-08-17T11:58:10;4.18;;;2.45;;
39016;SDS011;24784;45.582;5.276;2023-08-17T12:00:37;9.85;;;1.80;;
39016;SDS011;24784;45.582;5.276;2023-08-17T12:03:06;4.40;;;1.80;;
39016;SDS011;24784;45.582;5.276;2023-08-17T12:05:32;4.85;;;2.33;;
39016;SDS011;24784;45.582;5.276;2023-08-17T12:08:01;5.32;;;1.88;;
39016;SDS011;24784;45.582;5.276;2023-08-17T12:10:27;6.03;;;1.88;;
39016;SDS011;24784;45.582;5.276;2023-08-17T12:12:56;4.65;;;1.92;;
39016;SDS011;24784;45.582;5.276;2023-08-17T12:15:24;3.83;;;1.70;;
39016;SDS011;24784;45.582;5.276;2023-08-17T12:17:51;11.50;;;1.80;;
39016;SDS011;24784;45.582;5.276;2023-08-17T12:20:20;3.63;;;2.00;;
39016;SDS011;24784;45.582;5.276;2023-08-17T12:22:46;6.82;;;2.30;;
39016;SDS011;24784;45.582;5.276;2023-08-17T12:25:12;6.68;;;2.05;;
39016;SDS011;24784;45.582;5.276;2023-08-17T12:27:39;5.85;;;2.25;;
39016;SDS011;24784;45.582;5.276;2023-08-17T12:30:11;4.95;;;2.10;;
39016;SDS011;24784;45.582;5.276;2023-08-17T12:32:38;7.63;;;1.58;;
39016;SDS011;24784;45.582;5.276;2023-08-17T12:35:04;2.47;;;1.63;;
39016;SDS011;24784;45.582;5.276;2023-08-17T12:37:30;5.47;;;2.20;;
39016;SDS011;24784;45.582;5.276;2023-08-17T12:39:55;6.72;;;1.65;;
39016;SDS011;24784;45.582;5.276;2023-08-17T12:42:21;3.33;;;1.40;;
39016;SDS011;24784;45.582;5.276;2023-08-17T12:44:47;7.20;;;2.20;;
39016;SDS011;24784;45.582;5.276;2023-08-17T12:47:13;5.10;;;1.70;;
39016;SDS011;24784;45.582;5.276;2023-08-17T12:49:39;8.93;;;1.80;;
39016;SDS011;24784;45.582;5.276;2023-08-17T12:52:05;4.43;;;1.13;;
39016;SDS011;24784;45.582;5.276;2023-08-17T12:54:30;2.75;;;1.38;;
39016;SDS011;24784;45.582;5.276;2023-08-17T12:56:56;2.67;;;1.23;;
39016;SDS011;24784;45.582;5.276;2023-08-17T12:59:22;4.88;;;1.35;;
39016;SDS011;24784;45.582;5.276;2023-08-17T13:01:47;3.72;;;1.27;;
39016;SDS011;24784;45.582;5.276;2023-08-17T13:04:13;4.05;;;1.27;;
39016;SDS011;24784;45.582;5.276;2023-08-17T13:06:39;6.55;;;1.30;;
39016;SDS011;24784;45.582;5.276;2023-08-17T13:09:04;2.25;;;1.42;;
39016;SDS011;24784;45.582;5.276;2023-08-17T13:11:30;3.47;;;1.40;;
39016;SDS011;24784;45.582;5.276;2023-08-17T13:13:57;3.05;;;1.30;;
39016;SDS011;24784;45.582;5.276;2023-08-17T13:16:22;7.30;;;1.80;;
39016;SDS011;24784;45.582;5.276;2023-08-17T13:18:48;2.92;;;1.60;;
39016;SDS011;24784;45.582;5.276;2023-08-17T13:21:14;4.70;;;1.65;;
39016;SDS011;24784;45.582;5.276;2023-08-17T13:23:41;3.67;;;1.55;;
39016;SDS011;24784;45.582;5.276;2023-08-17T13:26:06;3.67;;;1.50;;
39016;SDS011;24784;45.582;5.276;2023-08-17T13:28:32;7.50;;;1.45;;
39016;SDS011;24784;45.582;5.276;2023-08-17T13:30:58;3.33;;;1.73;;
39016;SDS011;24784;45.582;5.276;2023-08-17T13:33:23;5.85;;;1.70;;
39016;SDS011;24784;45.582;5.276;2023-08-17T13:35:49;3.92;;;1.90;;
39016;SDS011;24784;45.582;5.276;2023-08-17T13:38:16;3.15;;;1.67;;
39016;SDS011;24784;45.582;5.276;2023-08-17T13:40:42;4.30;;;1.88;;
39016;SDS011;24784;45.582;5.276;2023-08-17T13:43:07;5.00;;;1.80;;
39016;SDS011;24784;45.582;5.276;2023-08-17T13:45:37;4.50;;;1.83;;
39016;SDS011;24784;45.582;5.276;2023-08-17T13:48:06;3.15;;;1.90;;
39016;SDS011;24784;45.582;5.276;2023-08-17T13:50:33;15.45;;;1.83;;
39016;SDS011;24784;45.582;5.276;2023-08-17T13:52:59;3.08;;;1.77;;
39016;SDS011;24784;45.582;5.276;2023-08-17T13:55:26;6.07;;;1.77;;
39016;SDS011;24784;45.582;5.276;2023-08-17T13:57:53;7.10;;;1.63;;
39016;SDS011;24784;45.582;5.276;2023-08-17T14:00:20;3.45;;;1.90;;
39016;SDS011;24784;45.582;5.276;2023-08-17T14:02:46;5.68;;;2.03;;
39016;SDS011;24784;45.582;5.276;2023-08-17T14:05:12;3.00;;;1.60;;
39016;SDS011;24784;45.582;5.276;2023-08-17T14:07:37;5.80;;;2.03;;
39016;SDS011;24784;45.582;5.276;2023-08-17T14:10:03;3.53;;;1.70;;
39016;SDS011;24784;45.582;5.276;2023-08-17T14:12:29;3.70;;;1.50;;
39016;SDS011;24784;45.582;5.276;2023-08-17T14:14:55;5.82;;;1.58;;
39016;SDS011;24784;45.582;5.276;2023-08-17T14:17:21;4.25;;;1.40;;
39016;SDS011;24784;45.582;5.276;2023-08-17T14:19:46;3.65;;;1.65;;
39016;SDS011;24784;45.582;5.276;2023-08-17T14:22:12;5.95;;;1.83;;
39016;SDS011;24784;45.582;5.276;2023-08-17T14:24:38;7.80;;;2.17;;
39016;SDS011;24784;45.582;5.276;2023-08-17T14:27:03;4.18;;;1.92;;
39016;SDS011;24784;45.582;5.276;2023-08-17T14:29:29;6.38;;;2.47;;
39016;SDS011;24784;45.582;5.276;2023-08-17T14:31:55;5.22;;;1.60;;
39016;SDS011;24784;45.582;5.276;2023-08-17T14:34:20;5.95;;;1.52;;
39016;SDS011;24784;45.582;5.276;2023-08-17T14:36:46;7.88;;;1.60;;
39016;SDS011;24784;45.582;5.276;2023-08-17T14:39:12;2.67;;;1.60;;
39016;SDS011;24784;45.582;5.276;2023-08-17T14:41:38;7.43;;;1.88;;
39016;SDS011;24784;45.582;5.276;2023-08-17T14:44:03;5.20;;;1.20;;
39016;SDS011;24784;45.582;5.276;2023-08-17T14:46:29;2.45;;;1.27;;